Containerships 6 — DABH — position and weather

sailwx.info

Track history (hours):
 
Tides and Currents Weather Stations Pressure Air Temp Water Temp Dewpoint Dewpoint Depression Visibility Wind Speed Wind Dir Waves Ship Positions

Containerships 6

Last reported at 2015-Sep-04 13:33 UTC. Time now 2015-Sep-05 12:22 UTC.
Position N 60°01' E 026°30'.

Length 155 m; beam 21.8 m; draft 8.9 m.

Type: Ship (hazmat cat A). MMSI: 211315096.

Date/timePositionNaut miles runAvg speedWind from/ knotsBaromVisibWave heightAir tempDewpointWater temp
2015-Sep-04 13:33N 60°01' E 026°30'2018.4
2015-Sep-04 12:28N 60°02' E 027°10'7117.2
2015-Sep-04 08:19N 60°01' E 029°33'5 6.3
2015-Sep-04 07:33N 59°60' E 029°42'1 0.2
2015-Sep-04 04:19N 60°00' E 029°43'0 0.0
2015-Sep-04 03:22N 60°00' E 029°43'0 0.0
2015-Sep-03 18:22N 60°00' E 029°43'0 0.0
2015-Sep-03 13:24N 60°00' E 029°43'4 4.5
2015-Sep-03 12:33N 60°01' E 029°35'8315.0
2015-Sep-03 07:03N 59°59' E 026°50'914.5
2015-Sep-03 06:27N 59°59' E 026°33'54 3.7
2015-Sep-02 16:06N 59°47' E 024°48'1117.6
2015-Sep-02 15:27N 59°44' E 024°27'1917.7
2015-Sep-02 14:23N 59°38' E 023°51'1517.8
2015-Sep-02 13:33N 59°34' E 023°23'21818.0
2015-Sep-02 01:24N 56°55' E 018°40'3718.3
2015-Sep-01 23:24N 56°31' E 017°50'5618.4
2015-Sep-01 20:22N 55°58' E 016°28'3518.8
2015-Sep-01 18:29N 55°41' E 015°33'1819.0
2015-Sep-01 17:33N 55°32' E 015°06'1918.7
2015-Sep-01 16:34N 55°23' E 014°37'1918.6
2015-Sep-01 15:34N 55°08' E 014°18'1818.0
2015-Sep-01 14:33N 54°58' E 013°52'5518.3
2015-Sep-01 11:32N 54°37' E 012°23'1717.2
2015-Sep-01 10:33N 54°24' E 012°03'1818.4
2015-Sep-01 09:33N 54°29' E 011°32'1919.0
2015-Sep-01 08:33N 54°37' E 011°03'1615.6
2015-Sep-01 07:33N 54°52' E 010°52'1717.0
2015-Sep-01 06:33N 55°08' E 011°02'1716.7
2015-Sep-01 05:30N 55°25' E 010°58'8416.4
2015-Sep-01 00:22N 56°44' E 011°50'1417.3
2015-Aug-31 23:33N 56°58' E 011°43'1817.7
2015-Aug-31 22:33N 57°14' E 011°32'1817.7
2015-Aug-31 21:34N 57°30' E 011°18'1817.7
2015-Aug-31 20:34N 57°42' E 010°53'1616.0
2015-Aug-31 19:33N 57°46' E 010°24'16916.4
2015-Aug-31 09:11N 55°43' E 006°51'1218.1
2015-Aug-31 08:33N 55°33' E 006°40'1818.3
2015-Aug-31 07:33N 55°18' E 006°24'7417.9
2015-Aug-31 03:24N 54°14' E 005°17'1517.3
2015-Aug-31 02:33N 54°01' E 005°06'1917.4
2015-Aug-31 01:26N 53°43' E 004°54'3916.7
2015-Aug-30 23:05N 53°07' E 004°27'916.5
2015-Aug-30 22:33N 52°59' E 004°21'1716.5
2015-Aug-30 21:33N 52°45' E 004°08'1616.3
2015-Aug-30 20:33N 52°30' E 003°55'1616.3
2015-Aug-30 19:33N 52°14' E 003°53'1716.7
2015-Aug-30 18:33N 51°59' E 004°05'1111.4
2015-Aug-30 17:33N 51°54' E 004°22'2 2.4
2015-Aug-30 16:32N 51°53' E 004°25'0 0.0
2015-Aug-30 15:32N 51°53' E 004°25'0 0.0
2015-Aug-30 14:32N 51°53' E 004°25'0 0.0
2015-Aug-30 13:32N 51°53' E 004°25'0 0.0
2015-Aug-30 12:32N 51°53' E 004°25'0 0.0
2015-Aug-30 11:32N 51°53' E 004°25'0 0.0
2015-Aug-30 10:32N 51°53' E 004°25'0 0.0
2015-Aug-30 09:32N 51°53' E 004°25'0 0.0
2015-Aug-30 08:31N 51°53' E 004°25'0 0.0
2015-Aug-30 07:31N 51°53' E 004°25'0 0.0
2015-Aug-30 06:31N 51°53' E 004°25'0 0.0
2015-Aug-30 05:31N 51°53' E 004°25'0 0.0
2015-Aug-30 04:31N 51°53' E 004°25'0 0.0
2015-Aug-30 03:31N 51°53' E 004°25'0 0.0
2015-Aug-30 01:31N 51°53' E 004°25'0 0.0
2015-Aug-30 00:31N 51°53' E 004°25'0 0.0
2015-Aug-29 23:31N 51°53' E 004°25'4 4.5
2015-Aug-29 22:33N 51°54' E 004°18'1212.4
2015-Aug-29 21:33N 51°60' E 004°01'1818.1
2015-Aug-29 20:33N 52°06' E 003°33'1919.3
2015-Aug-29 19:33N 52°17' E 003°07'2119.9
2015-Aug-29 18:29N 52°29' E 002°38'1819.9
2015-Aug-29 17:33N 52°40' E 002°13'2019.7
2015-Aug-29 16:34N 52°51' E 001°47'1918.8
2015-Aug-29 15:33N 53°05' E 001°26'1918.8
2015-Aug-29 14:33N 53°21' E 001°08'2518.9
2015-Aug-29 13:14N 53°42' E 000°48'1318.7
2015-Aug-29 12:33N 53°51' E 000°33'1818.3
2015-Aug-29 11:33N 54°05' E 000°12'1817.9
2015-Aug-29 10:33N 54°18' W 000°09'1817.5
2015-Aug-29 09:33N 54°31' W 000°30'1817.6
2015-Aug-29 08:33N 54°39' W 000°56'8 7.9
2015-Aug-29 07:33N 54°36' W 001°09'0 0.0
2015-Aug-29 06:33N 54°36' W 001°09'0 0.0
2015-Aug-28 17:18N 54°36' W 001°09'0 0.0
2015-Aug-28 16:33N 54°36' W 001°09'2 2.1
2015-Aug-28 15:33N 54°38' W 001°09'1616.2
2015-Aug-28 14:33N 54°47' W 000°46'1918.6
2015-Aug-28 13:33N 54°55' W 000°17'1919.1
2015-Aug-28 12:32N 55°04' E 000°13'35418.2
2015-Aug-27 17:07N 57°41' E 009°45'1417.2
2015-Aug-27 16:19N 57°45' E 010°10'1216.2
2015-Aug-27 15:33N 57°49' E 010°32'1615.9
2015-Aug-27 14:34N 57°42' E 010°59'1919.0
2015-Aug-27 13:33N 57°29' E 011°25'1919.3
2015-Aug-27 12:33N 57°11' E 011°38'1919.1
2015-Aug-27 11:33N 56°53' E 011°51'1919.2
2015-Aug-27 10:33N 56°37' E 012°08'1919.1
2015-Aug-27 09:33N 56°19' E 012°22'1918.8
2015-Aug-27 08:33N 56°03' E 012°40'1817.6
2015-Aug-27 07:33N 55°46' E 012°42'1312.9
2015-Aug-27 06:33N 55°33' E 012°43'1515.1
2015-Aug-27 05:34N 55°18' E 012°44'1918.6
2015-Aug-27 04:34N 55°15' E 013°16'1918.8
2015-Aug-27 03:34N 55°14' E 013°49'1817.7
2015-Aug-27 02:34N 55°16' E 014°19'1817.7
2015-Aug-27 01:34N 55°27' E 014°45'1918.8
2015-Aug-27 00:34N 55°27' E 015°18'1918.9
2015-Aug-26 23:33N 55°28' E 015°51'2019.0
2015-Aug-26 22:29N 55°29' E 016°27'8419.0
2015-Aug-26 18:04N 55°36' E 018°54'1019.0
2015-Aug-26 17:33N 55°38' E 019°12'1919.0
2015-Aug-26 16:33N 55°40' E 019°45'  
Track history (hours):
 
Tides and Currents Weather Stations Pressure Air Temp Water Temp Dewpoint Dewpoint Depression Visibility Wind Speed Wind Dir Waves Ship Positions

Containerships 6

Last reported at 2015-Sep-04 13:33 UTC. Time now 2015-Sep-05 12:22 UTC.
Position N 60°01' E 026°30'.

Length 155 m; beam 21.8 m; draft 8.9 m.

Type: Ship (hazmat cat A). MMSI: 211315096.

Date/timePositionNaut miles runAvg speedWind from/ knotsBaromVisibWave heightAir tempDewpointWater temp
2015-Sep-04 13:33N 60°01' E 026°30'2018.4
2015-Sep-04 12:28N 60°02' E 027°10'7117.2
2015-Sep-04 08:19N 60°01' E 029°33'5 6.3
2015-Sep-04 07:33N 59°60' E 029°42'1 0.2
2015-Sep-04 04:19N 60°00' E 029°43'0 0.0
2015-Sep-04 03:22N 60°00' E 029°43'0 0.0
2015-Sep-03 18:22N 60°00' E 029°43'0 0.0
2015-Sep-03 13:24N 60°00' E 029°43'4 4.5
2015-Sep-03 12:33N 60°01' E 029°35'8315.0
2015-Sep-03 07:03N 59°59' E 026°50'914.5
2015-Sep-03 06:27N 59°59' E 026°33'54 3.7
2015-Sep-02 16:06N 59°47' E 024°48'1117.6
2015-Sep-02 15:27N 59°44' E 024°27'1917.7
2015-Sep-02 14:23N 59°38' E 023°51'1517.8
2015-Sep-02 13:33N 59°34' E 023°23'21818.0
2015-Sep-02 01:24N 56°55' E 018°40'3718.3
2015-Sep-01 23:24N 56°31' E 017°50'5618.4
2015-Sep-01 20:22N 55°58' E 016°28'3518.8
2015-Sep-01 18:29N 55°41' E 015°33'1819.0
2015-Sep-01 17:33N 55°32' E 015°06'1918.7
2015-Sep-01 16:34N 55°23' E 014°37'1918.6
2015-Sep-01 15:34N 55°08' E 014°18'1818.0
2015-Sep-01 14:33N 54°58' E 013°52'5518.3
2015-Sep-01 11:32N 54°37' E 012°23'1717.2
2015-Sep-01 10:33N 54°24' E 012°03'1818.4
2015-Sep-01 09:33N 54°29' E 011°32'1919.0
2015-Sep-01 08:33N 54°37' E 011°03'1615.6
2015-Sep-01 07:33N 54°52' E 010°52'1717.0
2015-Sep-01 06:33N 55°08' E 011°02'1716.7
2015-Sep-01 05:30N 55°25' E 010°58'8416.4
2015-Sep-01 00:22N 56°44' E 011°50'1417.3
2015-Aug-31 23:33N 56°58' E 011°43'1817.7
2015-Aug-31 22:33N 57°14' E 011°32'1817.7
2015-Aug-31 21:34N 57°30' E 011°18'1817.7
2015-Aug-31 20:34N 57°42' E 010°53'1616.0
2015-Aug-31 19:33N 57°46' E 010°24'16916.4
2015-Aug-31 09:11N 55°43' E 006°51'1218.1
2015-Aug-31 08:33N 55°33' E 006°40'1818.3
2015-Aug-31 07:33N 55°18' E 006°24'7417.9
2015-Aug-31 03:24N 54°14' E 005°17'1517.3
2015-Aug-31 02:33N 54°01' E 005°06'1917.4
2015-Aug-31 01:26N 53°43' E 004°54'3916.7
2015-Aug-30 23:05N 53°07' E 004°27'916.5
2015-Aug-30 22:33N 52°59' E 004°21'1716.5
2015-Aug-30 21:33N 52°45' E 004°08'1616.3
2015-Aug-30 20:33N 52°30' E 003°55'1616.3
2015-Aug-30 19:33N 52°14' E 003°53'1716.7
2015-Aug-30 18:33N 51°59' E 004°05'1111.4
2015-Aug-30 17:33N 51°54' E 004°22'2 2.4
2015-Aug-30 16:32N 51°53' E 004°25'0 0.0
2015-Aug-30 15:32N 51°53' E 004°25'0 0.0
2015-Aug-30 14:32N 51°53' E 004°25'0 0.0
2015-Aug-30 13:32N 51°53' E 004°25'0 0.0
2015-Aug-30 12:32N 51°53' E 004°25'0 0.0
2015-Aug-30 11:32N 51°53' E 004°25'0 0.0
2015-Aug-30 10:32N 51°53' E 004°25'0 0.0
2015-Aug-30 09:32N 51°53' E 004°25'0 0.0
2015-Aug-30 08:31N 51°53' E 004°25'0 0.0
2015-Aug-30 07:31N 51°53' E 004°25'0 0.0
2015-Aug-30 06:31N 51°53' E 004°25'0 0.0
2015-Aug-30 05:31N 51°53' E 004°25'0 0.0
2015-Aug-30 04:31N 51°53' E 004°25'0 0.0
2015-Aug-30 03:31N 51°53' E 004°25'0 0.0
2015-Aug-30 01:31N 51°53' E 004°25'0 0.0
2015-Aug-30 00:31N 51°53' E 004°25'0 0.0
2015-Aug-29 23:31N 51°53' E 004°25'4 4.5
2015-Aug-29 22:33N 51°54' E 004°18'1212.4
2015-Aug-29 21:33N 51°60' E 004°01'1818.1
2015-Aug-29 20:33N 52°06' E 003°33'1919.3
2015-Aug-29 19:33N 52°17' E 003°07'2119.9
2015-Aug-29 18:29N 52°29' E 002°38'1819.9
2015-Aug-29 17:33N 52°40' E 002°13'2019.7
2015-Aug-29 16:34N 52°51' E 001°47'1918.8
2015-Aug-29 15:33N 53°05' E 001°26'1918.8
2015-Aug-29 14:33N 53°21' E 001°08'2518.9
2015-Aug-29 13:14N 53°42' E 000°48'1318.7
2015-Aug-29 12:33N 53°51' E 000°33'1818.3
2015-Aug-29 11:33N 54°05' E 000°12'1817.9
2015-Aug-29 10:33N 54°18' W 000°09'1817.5
2015-Aug-29 09:33N 54°31' W 000°30'1817.6
2015-Aug-29 08:33N 54°39' W 000°56'8 7.9
2015-Aug-29 07:33N 54°36' W 001°09'0 0.0
2015-Aug-29 06:33N 54°36' W 001°09'0 0.0
2015-Aug-28 17:18N 54°36' W 001°09'0 0.0
2015-Aug-28 16:33N 54°36' W 001°09'2 2.1
2015-Aug-28 15:33N 54°38' W 001°09'1616.2
2015-Aug-28 14:33N 54°47' W 000°46'1918.6
2015-Aug-28 13:33N 54°55' W 000°17'1919.1
2015-Aug-28 12:32N 55°04' E 000°13'35418.2
2015-Aug-27 17:07N 57°41' E 009°45'1417.2
2015-Aug-27 16:19N 57°45' E 010°10'1216.2
2015-Aug-27 15:33N 57°49' E 010°32'1615.9
2015-Aug-27 14:34N 57°42' E 010°59'1919.0
2015-Aug-27 13:33N 57°29' E 011°25'1919.3
2015-Aug-27 12:33N 57°11' E 011°38'1919.1
2015-Aug-27 11:33N 56°53' E 011°51'1919.2
2015-Aug-27 10:33N 56°37' E 012°08'1919.1
2015-Aug-27 09:33N 56°19' E 012°22'1918.8
2015-Aug-27 08:33N 56°03' E 012°40'1817.6
2015-Aug-27 07:33N 55°46' E 012°42'1312.9
2015-Aug-27 06:33N 55°33' E 012°43'1515.1
2015-Aug-27 05:34N 55°18' E 012°44'1918.6
2015-Aug-27 04:34N 55°15' E 013°16'1918.8
2015-Aug-27 03:34N 55°14' E 013°49'1817.7
2015-Aug-27 02:34N 55°16' E 014°19'1817.7
2015-Aug-27 01:34N 55°27' E 014°45'1918.8
2015-Aug-27 00:34N 55°27' E 015°18'1918.9
2015-Aug-26 23:33N 55°28' E 015°51'2019.0
2015-Aug-26 22:29N 55°29' E 016°27'8419.0
2015-Aug-26 18:04N 55°36' E 018°54'1019.0
2015-Aug-26 17:33N 55°38' E 019°12'1919.0
2015-Aug-26 16:33N 55°40' E 019°45'  

Dump ship's entire track history